createdAt,value
2023-04-12T00:02:06.698Z,12.53
2023-04-12T00:04:36.173Z,12.51
2023-04-12T00:07:06.183Z,12.46
2023-04-12T00:09:36.567Z,12.43
2023-04-12T00:12:06.962Z,12.41
2023-04-12T00:14:35.029Z,12.40
2023-04-12T00:17:03.137Z,12.41
2023-04-12T00:19:31.211Z,12.41
2023-04-12T00:21:59.400Z,12.39
2023-04-12T00:24:27.850Z,12.37
2023-04-12T00:26:56.426Z,12.36
2023-04-12T00:29:26.838Z,12.36
2023-04-12T00:31:54.931Z,12.35
2023-04-12T00:34:24.392Z,12.29
2023-04-12T00:36:52.433Z,12.26
2023-04-12T00:39:20.508Z,12.25
2023-04-12T00:41:48.662Z,12.24
2023-04-12T00:44:18.197Z,12.18
2023-04-12T00:46:47.902Z,12.11
2023-04-12T00:49:16.068Z,12.12
2023-04-12T00:52:04.528Z,12.12
2023-04-12T00:54:33.411Z,12.08
2023-04-12T00:57:02.363Z,12.04
2023-04-12T00:59:30.459Z,12.01
2023-04-12T01:02:01.059Z,12.00
2023-04-12T01:04:29.970Z,11.94
2023-04-12T01:07:10.170Z,11.88
2023-04-12T01:09:45.082Z,11.90
2023-04-12T01:12:30.018Z,11.86
2023-04-12T01:15:02.045Z,11.83
2023-04-12T01:17:38.127Z,11.80
2023-04-12T01:20:13.701Z,11.77
2023-04-12T01:22:53.543Z,11.77
2023-04-12T01:25:30.582Z,11.77
2023-04-12T01:28:02.249Z,11.77
2023-04-12T01:30:30.865Z,11.75
2023-04-12T01:33:01.023Z,11.72
2023-04-12T01:35:34.957Z,11.68
2023-04-12T01:38:04.444Z,11.65
2023-04-12T01:40:33.446Z,11.63
2023-04-12T01:43:09.924Z,11.60
2023-04-12T01:45:38.479Z,11.53
2023-04-12T01:48:08.956Z,11.47
2023-04-12T01:50:41.449Z,11.44
2023-04-12T01:53:12.256Z,11.40
2023-04-12T01:55:41.319Z,11.40
2023-04-12T01:58:14.104Z,11.37
2023-04-12T02:00:44.696Z,11.37
2023-04-12T02:03:13.993Z,11.39
2023-04-12T02:05:42.305Z,11.38
2023-04-12T02:08:10.415Z,11.39
2023-04-12T02:10:40.484Z,11.40
2023-04-12T02:13:08.576Z,11.39
2023-04-12T02:15:38.700Z,11.38
2023-04-12T02:18:07.650Z,11.39
2023-04-12T02:20:36.073Z,11.39
2023-04-12T02:23:04.210Z,11.39
2023-04-12T02:25:33.565Z,11.38
2023-04-12T02:28:02.395Z,11.37
2023-04-12T02:30:30.584Z,11.34
2023-04-12T02:33:00.267Z,11.32
2023-04-12T02:35:33.002Z,11.30
2023-04-12T02:38:08.670Z,11.28
2023-04-12T02:40:40.887Z,11.24
2023-04-12T02:43:11.101Z,11.21
2023-04-12T02:45:43.518Z,11.15
2023-04-12T02:48:13.584Z,11.09
2023-04-12T02:50:41.824Z,11.01
2023-04-12T02:53:17.265Z,10.95
2023-04-12T02:55:49.939Z,10.90
2023-04-12T02:58:24.488Z,10.91
2023-04-12T03:00:54.056Z,10.93
2023-04-12T03:03:32.118Z,10.91
2023-04-12T03:06:09.888Z,10.91
2023-04-12T03:08:39.878Z,10.90
2023-04-12T03:11:08.287Z,10.86
2023-04-12T03:13:36.836Z,10.82
2023-04-12T03:16:21.867Z,10.80
2023-04-12T03:18:53.809Z,10.77
2023-04-12T03:21:25.202Z,10.76
2023-04-12T03:23:54.974Z,10.77
2023-04-12T03:26:26.668Z,10.75
2023-04-12T03:29:11.415Z,10.75
2023-04-12T03:31:41.684Z,10.77
2023-04-12T03:34:12.035Z,10.78
2023-04-12T03:36:45.058Z,10.78
2023-04-12T03:39:22.324Z,10.78
2023-04-12T03:41:53.333Z,10.81
2023-04-12T03:44:27.083Z,10.78
2023-04-12T03:46:57.586Z,10.80
2023-04-12T03:49:28.867Z,10.82
2023-04-12T03:51:57.272Z,10.82
2023-04-12T03:54:26.314Z,10.84
2023-04-12T03:57:00.033Z,10.85
2023-04-12T03:59:49.486Z,10.84
2023-04-12T04:02:22.760Z,10.85
2023-04-12T04:04:55.236Z,10.84
2023-04-12T04:07:28.356Z,10.80
2023-04-12T04:09:57.765Z,10.82
2023-04-12T04:12:30.798Z,10.82
2023-04-12T04:14:59.220Z,10.78
2023-04-12T04:17:32.715Z,10.74
2023-04-12T04:20:07.091Z,10.74
2023-04-12T04:22:38.410Z,10.72
2023-04-12T04:25:07.247Z,10.72
2023-04-12T04:27:39.087Z,10.71
2023-04-12T04:30:10.571Z,10.69
2023-04-12T04:32:44.434Z,10.72
2023-04-12T04:35:17.017Z,10.72
2023-04-12T04:38:04.319Z,10.75
2023-04-12T04:40:33.803Z,10.79
2023-04-12T04:43:03.421Z,10.83
2023-04-12T04:45:36.979Z,10.89
2023-04-12T04:48:05.307Z,10.98
2023-04-12T04:50:34.821Z,11.02
2023-04-12T04:53:05.016Z,11.08
2023-04-12T04:55:34.715Z,11.14
2023-04-12T04:58:02.940Z,11.18
2023-04-12T05:00:36.796Z,11.25
2023-04-12T05:03:05.223Z,11.31
2023-04-12T05:05:34.896Z,11.38
2023-04-12T05:08:08.644Z,11.44
2023-04-12T05:10:37.466Z,11.51
2023-04-12T05:13:05.745Z,11.60
2023-04-12T05:15:35.190Z,11.67
2023-04-12T05:18:03.606Z,11.74
2023-04-12T05:20:32.005Z,11.83
2023-04-12T05:23:02.123Z,11.92
2023-04-12T05:25:30.324Z,12.02
2023-04-12T05:28:14.366Z,12.12
2023-04-12T05:30:43.465Z,12.23
2023-04-12T05:33:13.758Z,12.31
2023-04-12T05:35:46.421Z,12.40
2023-04-12T05:38:16.423Z,12.52
2023-04-12T05:40:47.767Z,12.59
2023-04-12T05:43:18.298Z,12.70
2023-04-12T05:45:46.628Z,12.80
2023-04-12T05:48:14.949Z,12.89
2023-04-12T05:50:43.093Z,12.99
2023-04-12T05:53:13.770Z,13.09
2023-04-12T05:55:43.518Z,13.19
2023-04-12T05:58:11.932Z,13.32
2023-04-12T06:00:42.170Z,13.41
2023-04-12T06:03:10.865Z,13.53
2023-04-12T06:05:40.028Z,13.64
2023-04-12T06:08:08.899Z,13.75
2023-04-12T06:10:37.013Z,13.84
2023-04-12T06:13:07.389Z,13.97
2023-04-12T06:15:36.477Z,14.07
2023-04-12T06:18:04.838Z,14.18
2023-04-12T06:20:32.954Z,14.29
2023-04-12T06:23:01.294Z,14.39
2023-04-12T06:25:29.469Z,14.50
2023-04-12T06:27:59.155Z,14.61
2023-04-12T06:30:29.877Z,14.74
2023-04-12T06:32:58.492Z,14.84
2023-04-12T06:35:26.884Z,14.96
2023-04-12T06:37:55.053Z,15.08
2023-04-12T06:40:23.152Z,15.19
2023-04-12T06:42:51.244Z,15.30
2023-04-12T06:45:23.535Z,15.41
2023-04-12T06:47:54.714Z,15.52
2023-04-12T06:50:22.841Z,15.64
2023-04-12T06:52:50.972Z,15.71
2023-04-12T06:55:19.883Z,15.80
2023-04-12T06:57:47.929Z,15.87
2023-04-12T07:00:16.442Z,15.96
2023-04-12T07:02:44.669Z,16.04
2023-04-12T07:05:14.896Z,16.14
2023-04-12T07:07:42.980Z,16.23
2023-04-12T07:10:11.403Z,16.32
2023-04-12T07:12:42.040Z,16.39
2023-04-12T07:15:10.559Z,16.49
2023-04-12T07:17:40.255Z,16.60
2023-04-12T07:20:08.719Z,16.66
2023-04-12T07:22:38.324Z,16.74
2023-04-12T07:25:10.322Z,16.85
2023-04-12T07:27:38.481Z,16.92
2023-04-12T07:30:07.043Z,17.02
2023-04-12T07:32:35.280Z,17.09
2023-04-12T07:35:03.696Z,17.17
2023-04-12T07:37:31.809Z,17.31
2023-04-12T07:40:02.087Z,17.44
2023-04-12T07:42:30.581Z,17.53
2023-04-12T07:44:58.950Z,17.65
2023-04-12T07:47:27.159Z,17.77
2023-04-12T07:49:55.372Z,17.88
2023-04-12T07:52:23.372Z,17.95
2023-04-12T07:54:51.407Z,18.11
2023-04-12T07:57:21.465Z,18.27
2023-04-12T07:59:49.549Z,18.35
2023-04-12T08:02:24.791Z,18.50
2023-04-12T08:04:53.237Z,18.60
2023-04-12T08:07:22.318Z,18.77
2023-04-12T08:09:51.120Z,18.93
2023-04-12T08:12:21.342Z,19.05
2023-04-12T08:14:49.395Z,19.21
2023-04-12T08:17:17.890Z,19.36
2023-04-12T08:19:46.445Z,19.51
2023-04-12T08:22:14.649Z,19.64
2023-04-12T08:24:42.694Z,19.78
2023-04-12T08:27:13.940Z,19.93
2023-04-12T08:29:43.517Z,20.11
2023-04-12T08:32:12.808Z,20.25
2023-04-12T08:34:42.391Z,20.46
2023-04-12T08:37:11.801Z,20.56
2023-04-12T08:39:40.212Z,20.89
2023-04-12T08:42:08.341Z,21.06
2023-04-12T08:44:38.014Z,21.42
2023-04-12T08:47:08.333Z,21.91
2023-04-12T08:49:36.575Z,22.11
2023-04-12T08:52:06.785Z,22.65
2023-04-12T08:54:35.422Z,23.42
2023-04-12T08:57:05.006Z,24.19
2023-04-12T08:59:33.607Z,25.09
2023-04-12T09:02:01.933Z,25.80
2023-04-12T09:04:31.636Z,25.89
2023-04-12T09:06:59.969Z,26.20
2023-04-12T09:09:43.988Z,26.47
2023-04-12T09:12:12.741Z,27.04
2023-04-12T09:14:43.777Z,27.60
2023-04-12T09:17:24.779Z,28.00
2023-04-12T09:19:56.076Z,28.08
2023-04-12T09:22:34.615Z,27.85
2023-04-12T09:25:02.970Z,27.57
2023-04-12T09:27:31.109Z,27.40
2023-04-12T09:30:08.526Z,27.28
2023-04-12T09:32:36.690Z,27.46
2023-04-12T09:35:06.728Z,27.34
2023-04-12T09:37:34.843Z,27.22
2023-04-12T09:40:04.627Z,27.48
2023-04-12T09:42:34.907Z,28.09
2023-04-12T09:45:19.780Z,28.28
2023-04-12T09:47:48.163Z,28.57
2023-04-12T09:50:23.121Z,28.53
2023-04-12T09:52:51.423Z,28.71
2023-04-12T09:55:19.686Z,28.90
2023-04-12T09:57:48.202Z,29.26
2023-04-12T10:00:18.522Z,29.19
2023-04-12T10:02:48.263Z,29.01
2023-04-12T10:05:18.371Z,29.16
2023-04-12T10:07:48.563Z,28.92
2023-04-12T10:10:18.148Z,29.21
2023-04-12T10:12:47.916Z,29.36
2023-04-12T10:15:18.117Z,28.81
2023-04-12T10:17:48.064Z,29.02
2023-04-12T10:20:17.195Z,28.64
2023-04-12T10:22:46.158Z,28.78
2023-04-12T10:25:16.136Z,28.87
2023-04-12T10:27:44.817Z,29.52
2023-04-12T10:30:23.489Z,30.38
2023-04-12T10:33:12.758Z,30.74
2023-04-12T10:35:52.098Z,31.40
2023-04-12T10:38:20.498Z,31.91
2023-04-12T10:41:06.920Z,32.56
2023-04-12T10:43:36.591Z,33.12
2023-04-12T10:46:06.875Z,33.37
2023-04-12T10:48:35.926Z,33.70
2023-04-12T10:51:14.174Z,33.47
2023-04-12T10:53:42.561Z,33.28
2023-04-12T10:56:37.708Z,33.75
2023-04-12T10:59:08.005Z,34.47
2023-04-12T11:01:42.397Z,34.39
2023-04-12T11:04:12.674Z,34.81
2023-04-12T11:06:45.131Z,35.08
2023-04-12T11:09:39.067Z,35.48
2023-04-12T11:12:14.273Z,35.65
2023-04-12T11:14:48.041Z,35.93
2023-04-12T11:17:23.234Z,36.33
2023-04-12T11:19:56.438Z,36.72
2023-04-12T11:22:25.547Z,36.76
2023-04-12T11:24:54.447Z,36.79
2023-04-12T11:27:23.264Z,36.40
2023-04-12T11:29:54.580Z,36.25
2023-04-12T11:32:25.839Z,35.57
2023-04-12T11:35:27.486Z,35.70
2023-04-12T11:37:57.487Z,35.78
2023-04-12T11:40:27.156Z,35.44
2023-04-12T11:42:57.855Z,35.29
2023-04-12T11:45:29.544Z,34.35
2023-04-12T11:47:58.346Z,33.61
2023-04-12T11:50:29.784Z,32.86
2023-04-12T11:53:10.219Z,32.04
2023-04-12T11:55:38.287Z,31.38
2023-04-12T11:58:06.527Z,30.81
2023-04-12T12:00:36.422Z,30.59
2023-04-12T12:03:08.385Z,30.15
2023-04-12T12:05:38.581Z,29.70
2023-04-12T12:08:08.008Z,29.12
2023-04-12T12:10:51.959Z,28.21
2023-04-12T12:13:25.258Z,27.21
2023-04-12T12:15:54.936Z,26.57
2023-04-12T12:18:26.645Z,26.03
2023-04-12T12:20:55.942Z,25.94
2023-04-12T12:23:31.236Z,25.69
2023-04-12T12:26:14.333Z,25.52
2023-04-12T12:28:50.281Z,25.46
2023-04-12T12:31:21.550Z,25.08
2023-04-12T12:33:49.938Z,24.98
2023-04-12T12:36:19.809Z,24.79
2023-04-12T12:38:49.299Z,24.66
2023-04-12T12:41:18.555Z,24.66
2023-04-12T12:43:47.403Z,24.68
2023-04-12T12:46:15.763Z,24.66
2023-04-12T12:48:45.428Z,24.54
2023-04-12T12:51:14.329Z,24.29
2023-04-12T12:53:42.491Z,24.23
2023-04-12T12:56:11.305Z,24.24
2023-04-12T12:58:40.982Z,24.05
2023-04-12T13:01:10.213Z,23.78
2023-04-12T13:03:38.492Z,23.68
2023-04-12T13:06:08.865Z,23.82
2023-04-12T13:08:37.331Z,23.69
2023-04-12T13:11:05.797Z,23.40
2023-04-12T13:13:33.878Z,23.29
2023-04-12T13:16:02.114Z,23.09
2023-04-12T13:18:30.198Z,23.00
2023-04-12T13:20:58.296Z,22.81
2023-04-12T13:23:27.857Z,22.81
2023-04-12T13:25:55.926Z,22.64
2023-04-12T13:28:23.907Z,22.63
2023-04-12T13:30:52.013Z,22.65
2023-04-12T13:33:22.168Z,22.74
2023-04-12T13:35:50.931Z,22.84
2023-04-12T13:38:19.083Z,22.86
2023-04-12T13:40:48.613Z,22.88
2023-04-12T13:43:17.074Z,22.92
2023-04-12T13:45:45.478Z,22.62
2023-04-12T13:48:13.658Z,22.49
2023-04-12T13:50:41.800Z,22.36
2023-04-12T13:53:09.902Z,22.39
2023-04-12T13:55:37.939Z,22.23
2023-04-12T13:58:07.405Z,21.99
2023-04-12T14:00:35.560Z,21.89
2023-04-12T14:03:03.945Z,21.66
2023-04-12T14:05:32.118Z,21.57
2023-04-12T14:08:00.190Z,21.54
2023-04-12T14:10:28.282Z,21.44
2023-04-12T14:12:56.356Z,21.16
2023-04-12T14:15:25.946Z,21.06
2023-04-12T14:17:54.327Z,21.00
2023-04-12T14:20:24.056Z,21.03
2023-04-12T14:22:52.258Z,21.09
2023-04-12T14:25:21.426Z,21.19
2023-04-12T14:27:49.561Z,21.33
2023-04-12T14:30:19.046Z,21.42
2023-04-12T14:32:49.586Z,21.29
2023-04-12T14:35:18.506Z,21.25
2023-04-12T14:37:47.763Z,21.25
2023-04-12T14:40:17.634Z,21.29
2023-04-12T14:42:45.745Z,21.21
2023-04-12T14:45:14.919Z,21.12
2023-04-12T14:47:43.091Z,21.02
2023-04-12T14:50:12.816Z,20.86
2023-04-12T14:52:40.898Z,20.77
2023-04-12T14:55:10.730Z,20.74
2023-04-12T14:57:40.046Z,20.73
2023-04-12T15:00:13.512Z,20.65
2023-04-12T15:02:42.616Z,20.56
2023-04-12T15:05:12.345Z,20.43
2023-04-12T15:07:41.204Z,20.42
2023-04-12T15:10:09.877Z,20.42
2023-04-12T15:12:38.091Z,20.50
2023-04-12T15:15:06.981Z,20.43
2023-04-12T15:17:35.853Z,20.41
2023-04-12T15:20:09.172Z,20.33
2023-04-12T15:22:38.727Z,20.27
2023-04-12T15:25:07.763Z,20.28
2023-04-12T15:27:35.870Z,20.31
2023-04-12T15:30:05.148Z,20.28
2023-04-12T15:32:36.556Z,20.27
2023-04-12T15:35:15.071Z,20.14
2023-04-12T15:37:52.651Z,20.17
2023-04-12T15:40:22.944Z,20.10
2023-04-12T15:42:51.172Z,20.06
2023-04-12T15:45:19.281Z,19.99
2023-04-12T15:47:47.567Z,19.93
2023-04-12T15:50:15.689Z,19.96
2023-04-12T15:52:44.388Z,19.81
2023-04-12T15:55:17.084Z,19.81
2023-04-12T15:57:45.460Z,19.73
2023-04-12T16:00:23.994Z,19.66
2023-04-12T16:02:56.313Z,19.64
2023-04-12T16:05:26.885Z,19.64
2023-04-12T16:07:56.887Z,19.61
2023-04-12T16:10:27.089Z,19.60
2023-04-12T16:12:56.568Z,19.61
2023-04-12T16:15:24.734Z,19.63
2023-04-12T16:17:54.690Z,19.60
2023-04-12T16:20:23.427Z,19.59
2023-04-12T16:22:54.301Z,19.58
2023-04-12T16:25:22.752Z,19.60
2023-04-12T16:27:52.377Z,19.61
2023-04-12T16:30:22.567Z,19.58
2023-04-12T16:32:52.268Z,19.57
2023-04-12T16:35:20.514Z,19.58
2023-04-12T16:37:48.883Z,19.57
2023-04-12T16:40:17.398Z,19.54
2023-04-12T16:42:45.962Z,19.52
2023-04-12T16:45:15.939Z,19.47
2023-04-12T16:47:44.114Z,19.45
2023-04-12T16:50:13.648Z,19.42
2023-04-12T16:52:42.075Z,19.40
2023-04-12T16:55:11.595Z,19.37
2023-04-12T16:57:41.299Z,19.40
2023-04-12T17:00:20.697Z,19.36
2023-04-12T17:02:51.625Z,19.36
2023-04-12T17:05:20.555Z,19.38
2023-04-12T17:07:49.921Z,19.38
2023-04-12T17:10:18.533Z,19.38
2023-04-12T17:12:46.911Z,19.37
2023-04-12T17:15:16.596Z,19.37
2023-04-12T17:17:44.851Z,19.36
2023-04-12T17:20:14.809Z,19.30
2023-04-12T17:22:43.030Z,19.26
2023-04-12T17:25:11.862Z,19.24
2023-04-12T17:27:41.119Z,19.19
2023-04-12T17:30:10.836Z,19.18
2023-04-12T17:32:39.402Z,19.12
2023-04-12T17:35:08.060Z,19.11
2023-04-12T17:37:38.365Z,19.01
2023-04-12T17:40:07.199Z,18.95
2023-04-12T17:42:35.474Z,18.89
2023-04-12T17:45:03.658Z,18.87
2023-04-12T17:47:33.971Z,18.83
2023-04-12T17:50:02.651Z,18.77
2023-04-12T17:52:32.181Z,18.74
2023-04-12T17:55:01.781Z,18.70
2023-04-12T17:57:31.475Z,18.70
2023-04-12T17:59:59.614Z,18.69
2023-04-12T18:02:28.044Z,18.67
2023-04-12T18:04:56.344Z,18.65
2023-04-12T18:07:24.581Z,18.62
2023-04-12T18:09:52.760Z,18.57
2023-04-12T18:12:22.508Z,18.52
2023-04-12T18:14:51.002Z,18.51
2023-04-12T18:17:19.076Z,18.47
2023-04-12T18:19:47.274Z,18.46
2023-04-12T18:22:15.349Z,18.43
2023-04-12T18:24:43.621Z,18.41
2023-04-12T18:27:11.688Z,18.39
2023-04-12T18:29:41.143Z,18.37
2023-04-12T18:32:09.213Z,18.34
2023-04-12T18:34:40.188Z,18.32
2023-04-12T18:37:08.462Z,18.30
2023-04-12T18:39:36.844Z,18.29
2023-04-12T18:42:05.097Z,18.25
2023-04-12T18:44:34.441Z,18.24
2023-04-12T18:47:03.982Z,18.21
2023-04-12T18:49:32.113Z,18.17
2023-04-12T18:52:00.251Z,18.14
2023-04-12T18:54:29.179Z,18.09
2023-04-12T18:57:01.002Z,18.02
2023-04-12T18:59:29.036Z,17.95
2023-04-12T19:01:57.206Z,17.92
2023-04-12T19:04:27.462Z,17.88
2023-04-12T19:06:57.182Z,17.86
2023-04-12T19:09:25.372Z,17.85
2023-04-12T19:11:55.570Z,17.84
2023-04-12T19:14:23.912Z,17.83
2023-04-12T19:16:53.141Z,17.80
2023-04-12T19:19:21.441Z,17.77
2023-04-12T19:21:50.843Z,17.75
2023-04-12T19:24:18.910Z,17.73
2023-04-12T19:26:48.207Z,17.73
2023-04-12T19:29:16.287Z,17.71
2023-04-12T19:31:47.342Z,17.70
2023-04-12T19:34:18.076Z,17.65
2023-04-12T19:36:46.273Z,17.62
2023-04-12T19:39:15.844Z,17.57
2023-04-12T19:41:43.947Z,17.48
2023-04-12T19:44:12.122Z,17.44
2023-04-12T19:46:40.412Z,17.36
2023-04-12T19:49:09.570Z,17.34
2023-04-12T19:51:37.886Z,17.30
2023-04-12T19:54:06.036Z,17.22
2023-04-12T19:56:35.472Z,17.19
2023-04-12T19:59:05.678Z,17.13
2023-04-12T20:01:35.968Z,17.08
2023-04-12T20:04:05.701Z,17.06
2023-04-12T20:06:33.975Z,17.00
2023-04-12T20:09:02.127Z,16.96
2023-04-12T20:11:30.838Z,16.92
2023-04-12T20:14:00.461Z,16.90
2023-04-12T20:16:28.652Z,16.87
2023-04-12T20:18:59.027Z,16.83
2023-04-12T20:21:27.943Z,16.81
2023-04-12T20:23:56.187Z,16.78
2023-04-12T20:26:27.530Z,16.75
2023-04-12T20:28:56.233Z,16.73
2023-04-12T20:31:26.146Z,16.70
2023-04-12T20:33:54.960Z,16.64
2023-04-12T20:36:23.157Z,16.58
2023-04-12T20:38:52.575Z,16.55
2023-04-12T20:41:21.116Z,16.49
2023-04-12T20:43:49.394Z,16.47
2023-04-12T20:46:19.360Z,16.43
2023-04-12T20:48:50.906Z,16.41
2023-04-12T20:51:21.058Z,16.39
2023-04-12T20:53:51.241Z,16.36
2023-04-12T20:56:19.990Z,16.34
2023-04-12T20:58:49.829Z,16.31
2023-04-12T21:01:18.872Z,16.28
2023-04-12T21:03:49.228Z,16.26
2023-04-12T21:06:18.036Z,16.24
2023-04-12T21:08:47.484Z,16.22
2023-04-12T21:11:16.500Z,16.21
2023-04-12T21:13:44.743Z,16.19
2023-04-12T21:16:16.247Z,16.16
2023-04-12T21:18:44.831Z,16.14
2023-04-12T21:21:14.233Z,16.11
2023-04-12T21:23:42.959Z,16.11
2023-04-12T21:26:11.092Z,16.09
2023-04-12T21:28:39.845Z,16.07
2023-04-12T21:31:08.292Z,16.04
2023-04-12T21:33:37.014Z,16.03
2023-04-12T21:36:05.334Z,16.01
2023-04-12T21:38:34.862Z,15.97
2023-04-12T21:41:06.356Z,15.93
2023-04-12T21:43:34.551Z,15.90
2023-04-12T21:46:02.758Z,15.89
2023-04-12T21:48:31.031Z,15.87
2023-04-12T21:50:59.098Z,15.84
2023-04-12T21:53:27.449Z,15.83
2023-04-12T21:55:56.955Z,15.82
2023-04-12T21:58:25.056Z,15.79
2023-04-12T22:00:53.798Z,15.79
2023-04-12T22:03:22.263Z,15.76
2023-04-12T22:06:03.740Z,15.75
2023-04-12T22:08:34.304Z,15.75
2023-04-12T22:11:04.239Z,15.75
2023-04-12T22:13:32.295Z,15.75
2023-04-12T22:16:00.847Z,15.74
2023-04-12T22:18:29.726Z,15.74
2023-04-12T22:20:57.987Z,15.73
2023-04-12T22:23:26.300Z,15.73
2023-04-12T22:25:58.510Z,15.71
2023-04-12T22:28:28.079Z,15.71
2023-04-12T22:30:57.237Z,15.70
2023-04-12T22:33:25.530Z,15.68
2023-04-12T22:35:53.883Z,15.67
2023-04-12T22:38:22.043Z,15.66
2023-04-12T22:40:51.182Z,15.64
2023-04-12T22:43:21.015Z,15.63
2023-04-12T22:45:54.051Z,15.60
2023-04-12T22:48:25.064Z,15.59
2023-04-12T22:50:54.624Z,15.57
2023-04-12T22:53:22.687Z,15.55
2023-04-12T22:55:50.888Z,15.51
2023-04-12T22:58:19.813Z,15.48
2023-04-12T23:00:50.764Z,15.46
2023-04-12T23:03:20.909Z,15.43
2023-04-12T23:05:49.272Z,15.40
2023-04-12T23:08:18.014Z,15.36
2023-04-12T23:10:46.299Z,15.29
2023-04-12T23:13:14.592Z,15.24
2023-04-12T23:15:43.080Z,15.18
2023-04-12T23:18:11.396Z,15.13
2023-04-12T23:20:41.111Z,15.06
2023-04-12T23:23:10.083Z,15.01
2023-04-12T23:25:41.713Z,14.98
2023-04-12T23:28:13.279Z,14.92
2023-04-12T23:30:43.776Z,14.88
2023-04-12T23:33:12.506Z,14.84
2023-04-12T23:35:42.574Z,14.80
2023-04-12T23:38:15.677Z,14.77
2023-04-12T23:40:44.436Z,14.75
2023-04-12T23:43:12.862Z,14.73
2023-04-12T23:45:41.053Z,14.71
2023-04-12T23:48:09.136Z,14.67
2023-04-12T23:50:37.257Z,14.64
2023-04-12T23:53:07.225Z,14.61
2023-04-12T23:55:35.239Z,14.61
2023-04-12T23:58:03.312Z,14.59
